ADDS METAR Data INFO
IDs: Format: Raw Decoded Include TAF

Data at: 1035 UTC 19 Oct 2017

KGYY 190945Z 22008KT 10SM SKC 12/08 A3007
KGYY 190915Z AUTO 22003KT 10SM CLR 13/08 A3007 RMK AO2 T01270080
KGYY 190855Z AUTO 22004KT 10SM CLR 13/08 A3007 RMK AO2 T01280080
KGYY 190835Z AUTO 22003KT 10SM CLR 13/08 A3007 RMK AO2 T01300078
KGYY 190815Z AUTO 21004KT 10SM CLR 13/08 A3007 RMK AO2 T01300077
KGYY 190755Z AUTO 20003KT 10SM CLR 13/08 A3007 RMK AO2 T01300076
KGYY 190735Z AUTO 20003KT 10SM CLR 13/08 A3007 RMK AO2 T01310075
KGYY 190715Z AUTO 21004KT 10SM CLR 14/08 A3006 RMK AO2 T01350075
KGYY 190655Z AUTO 20004KT 10SM CLR 14/07 A3006 RMK AO2 T01380073
KGYY 190635Z AUTO 20004KT 10SM CLR 14/07 A3006 RMK AO2 T01400072
KGYY 190615Z AUTO 20005KT 10SM CLR 14/07 A3006 RMK AO2 T01430071
KGYY 190555Z AUTO 19005KT 10SM CLR 15/07 A3006 RMK AO2 T01460070 10188 20146 402200111
KGYY 190535Z AUTO 20004KT 10SM CLR 15/07 A3007 RMK AO2 T01500069
KGYY 190515Z AUTO 20004KT 10SM CLR 15/07 A3007 RMK AO2 T01500068
KGYY 190455Z AUTO 19006KT 10SM CLR 15/07 A3007 RMK AO2 T01520066
KGYY 190435Z AUTO 20005KT 10SM CLR 16/07 A3008 RMK AO2 T01550065
KGYY 190415Z AUTO 21005KT 10SM CLR 16/06 A3009 RMK AO2 T01560062
KGYY 190355Z AUTO 21004KT 10SM CLR 16/06 A3009 RMK AO2 T01600060
KGYY 190335Z AUTO 20005KT 10SM CLR 16/06 A3008 RMK AO2 T01620058
KGYY 190315Z AUTO 19006KT 10SM CLR 17/06 A3007 RMK AO2 T01650055
KGYY 190245Z 18010KT 10SM SKC 17/05 A3007
KGYY 190145Z 18007G17KT 10SM SKC 17/05 A3007
KGYY 190045Z 18007KT 10SM SKC 18/03 A3007
KGYY 182345Z 18009KT 10SM SKC 19/03 A3006
KGYY 182245Z 18008KT 20SM FEW250 20/01 A3005
KGYY 182145Z 21009G19KT 20SM SKC 21/01 A3005
KGYY 182045Z 18006G22KT 20SM SKC 22/01 A3008
KGYY 181945Z 19010G21KT 15SM SKC 21/02 A3008
KGYY 181845Z 18010G22KT 15SM SKC 21/03 A3011
KGYY 181745Z 20010G20KT 15SM SKC 20/04 A3013
KGYY 181645Z 17006KT 15SM SKC 19/04 A3017
KGYY 181545Z 17011KT 15SM SKC 17/05 A3018
KGYY 181445Z 20007KT 15SM SKC 15/04 A3020
KGYY 181345Z 18011KT 20SM SKC 13/04 A3020
KGYY 181245Z 17005KT 20SM SKC 11/04 A3020
KGYY 181145Z 19006KT 15SM SKC 11/04 A3019
KGYY 181045Z 19010KT 10SM SKC 12/04 A3020
KGYY 180945Z 18004KT 10SM SKC 12/04 A3019
KGYY 180915Z AUTO 18005KT 10SM CLR 12/04 A3019 RMK AO2 T01160037
KGYY 180855Z AUTO 19005KT 10SM CLR 12/04 A3018 RMK AO2 T01150036
KGYY 180835Z AUTO 19005KT 10SM CLR 12/04 A3018 RMK AO2 T01160036
KGYY 180815Z AUTO 00000KT 10SM CLR 12/04 A3018 RMK AO2 T01170036
KGYY 180755Z AUTO 18004KT 10SM CLR 12/04 A3018 RMK AO2 T01180036
KGYY 180735Z AUTO 19003KT 10SM CLR 12/04 A3018 RMK AO2 T01160037
KGYY 180715Z AUTO 19004KT 10SM CLR 12/04 A3018 RMK AO2 T01180036
KGYY 180655Z AUTO 18003KT 10SM CLR 12/04 A3018 RMK AO2 T01190035
KGYY 180635Z AUTO 19003KT 10SM CLR 12/03 A3018 RMK AO2 T01210033
KGYY 180615Z AUTO 20004KT 10SM CLR 12/03 A3018 RMK AO2 T01230032
KGYY 180555Z AUTO 19003KT 10SM CLR 13/03 A3018 RMK AO2 T01250032 10178 20125 402200074
KGYY 180535Z AUTO 20004KT 10SM CLR 13/03 A3018 RMK AO2 T01280032
KGYY 180515Z AUTO 19003KT 10SM CLR 13/03 A3018 RMK AO2 T01310032
KGYY 180455Z AUTO 19005KT 10SM CLR 14/03 A3018 RMK AO2 T01350031
KGYY 180435Z AUTO 20005KT 10SM CLR 14/03 A3018 RMK AO2 T01360030
KGYY 180415Z AUTO 20004KT 10SM CLR 14/03 A3018 RMK AO2 T01370031
KGYY 180355Z AUTO 19004KT 10SM CLR 14/03 A3018 RMK AO2 T01410030
KGYY 180335Z AUTO 19005KT 10SM CLR 14/03 A3019 RMK AO2 T01430030
KGYY 180315Z AUTO 19004KT 10SM CLR 15/03 A3019 RMK AO2 T01450030
KGYY 180245Z 20004KT 10SM SKC 15/03 A3019
KGYY 180145Z 18006KT 10SM SKC 16/03 A3017
KGYY 180045Z 19006KT 10SM SKC 17/03 A3016
KGYY 172345Z 19004KT 10SM SKC 18/03 A3015
KGYY 172245Z 20007KT 20SM FEW250 20/02 A3014